createdAt,value
2019-01-22T00:00:35.526Z,999.10
2019-01-22T00:01:41.301Z,999.10
2019-01-22T00:02:47.057Z,999.10
2019-01-22T00:03:52.850Z,999.08
2019-01-22T00:04:58.606Z,999.03
2019-01-22T00:06:04.354Z,999.07
2019-01-22T00:07:10.147Z,999.07
2019-01-22T00:08:15.919Z,999.07
2019-01-22T00:09:21.674Z,999.07
2019-01-22T00:10:27.438Z,999.03
2019-01-22T00:11:33.207Z,999.01
2019-01-22T00:12:38.995Z,998.98
2019-01-22T00:13:44.753Z,998.94
2019-01-22T00:14:50.629Z,998.97
2019-01-22T00:15:56.272Z,998.95
2019-01-22T00:17:02.048Z,998.92
2019-01-22T00:18:07.802Z,998.93
2019-01-22T00:19:13.573Z,998.87
2019-01-22T00:20:19.337Z,998.89
2019-01-22T00:21:25.107Z,998.88
2019-01-22T00:22:30.871Z,998.88
2019-01-22T00:23:36.631Z,998.84
2019-01-22T00:24:42.406Z,998.81
2019-01-22T00:25:48.156Z,998.79
2019-01-22T00:26:53.920Z,998.76
2019-01-22T00:27:59.675Z,998.75
2019-01-22T00:29:05.460Z,998.75
2019-01-22T00:30:11.215Z,998.79
2019-01-22T00:31:16.982Z,998.72
2019-01-22T00:32:22.744Z,998.68
2019-01-22T00:33:28.618Z,998.66
2019-01-22T00:34:34.286Z,998.67
2019-01-22T00:35:40.059Z,998.64
2019-01-22T00:36:45.796Z,998.65
2019-01-22T00:37:51.565Z,998.66
2019-01-22T00:38:57.330Z,998.60
2019-01-22T00:40:03.082Z,998.55
2019-01-22T00:41:08.838Z,998.54
2019-01-22T00:42:14.609Z,998.57
2019-01-22T00:43:20.351Z,998.56
2019-01-22T00:44:26.153Z,998.58
2019-01-22T00:45:31.877Z,998.55
2019-01-22T00:46:37.645Z,998.58
2019-01-22T00:47:44.399Z,998.57
2019-01-22T00:48:49.180Z,998.53
2019-01-22T00:49:54.935Z,998.54
2019-01-22T00:51:00.695Z,998.53
2019-01-22T00:52:06.456Z,998.52
2019-01-22T00:53:12.209Z,998.48
2019-01-22T00:54:17.977Z,998.44
2019-01-22T00:55:23.716Z,998.41
2019-01-22T00:56:29.491Z,998.44
2019-01-22T00:57:35.254Z,998.39
2019-01-22T00:58:41.016Z,998.36
2019-01-22T00:59:46.771Z,998.35
2019-01-22T01:00:52.610Z,998.33
2019-01-22T01:01:58.291Z,998.33
2019-01-22T01:03:04.054Z,998.32
2019-01-22T01:04:09.833Z,998.34
2019-01-22T01:05:15.607Z,998.32
2019-01-22T01:06:22.326Z,998.32
2019-01-22T01:07:27.092Z,998.31
2019-01-22T01:08:32.357Z,998.27
2019-01-22T01:09:38.610Z,998.24
2019-01-22T01:10:44.369Z,998.25
2019-01-22T01:11:50.117Z,998.24
2019-01-22T01:12:55.884Z,998.23
2019-01-22T01:14:01.679Z,998.18
2019-01-22T01:15:07.392Z,998.18
2019-01-22T01:16:13.151Z,998.16
2019-01-22T01:17:18.904Z,998.14
2019-01-22T01:18:24.679Z,998.15
2019-01-22T01:19:30.417Z,998.13
2019-01-22T01:20:36.173Z,998.14
2019-01-22T01:21:41.925Z,998.13
2019-01-22T01:22:47.684Z,998.17
2019-01-22T01:23:53.450Z,998.12
2019-01-22T01:24:59.207Z,998.07
2019-01-22T01:26:04.957Z,998.11
2019-01-22T01:27:10.713Z,998.09
2019-01-22T01:28:17.449Z,998.12
2019-01-22T01:29:22.234Z,998.09
2019-01-22T01:30:27.976Z,998.08
2019-01-22T01:31:33.727Z,998.13
2019-01-22T01:32:39.476Z,998.05
2019-01-22T01:33:45.280Z,998.02
2019-01-22T01:34:51.006Z,998.04
2019-01-22T01:35:56.742Z,998.00
2019-01-22T01:37:02.619Z,998.02
2019-01-22T01:38:08.253Z,997.99
2019-01-22T01:39:13.993Z,998.03
2019-01-22T01:40:19.753Z,998.03
2019-01-22T01:41:25.502Z,998.04
2019-01-22T01:42:31.279Z,998.04
2019-01-22T01:43:37.028Z,998.02
2019-01-22T01:44:42.780Z,998.01
2019-01-22T01:45:48.615Z,998.02
2019-01-22T01:46:54.279Z,998.01
2019-01-22T01:48:00.096Z,998.02
2019-01-22T01:49:06.805Z,997.95
2019-01-22T01:50:11.541Z,997.99
2019-01-22T01:51:17.309Z,997.94
2019-01-22T01:52:23.052Z,997.94
2019-01-22T01:53:28.806Z,997.95
2019-01-22T01:54:34.616Z,997.90
2019-01-22T01:55:40.315Z,997.88
2019-01-22T01:56:46.060Z,997.86
2019-01-22T01:57:51.815Z,997.83
2019-01-22T01:58:57.569Z,997.79
2019-01-22T02:00:03.346Z,997.79
2019-01-22T02:01:09.073Z,997.77
2019-01-22T02:02:14.842Z,997.75
2019-01-22T02:03:20.618Z,997.77
2019-01-22T02:04:27.329Z,997.73
2019-01-22T02:05:31.605Z,997.79
2019-01-22T02:06:37.845Z,997.71
2019-01-22T02:07:43.601Z,997.68
2019-01-22T02:08:49.389Z,997.66
2019-01-22T02:09:55.110Z,997.61
2019-01-22T02:11:00.838Z,997.62
2019-01-22T02:12:06.620Z,997.56
2019-01-22T02:13:12.351Z,997.52
2019-01-22T02:14:18.098Z,997.54
2019-01-22T02:15:23.852Z,997.48
2019-01-22T02:16:29.594Z,997.44
2019-01-22T02:17:36.335Z,997.46
2019-01-22T02:18:41.095Z,997.45
2019-01-22T02:19:47.830Z,997.42
2019-01-22T02:20:52.616Z,997.42
2019-01-22T02:21:58.360Z,997.39
2019-01-22T02:23:04.089Z,997.36
2019-01-22T02:24:09.840Z,997.35
2019-01-22T02:25:15.608Z,997.36
2019-01-22T02:26:21.358Z,997.34
2019-01-22T02:27:27.105Z,997.32
2019-01-22T02:28:32.831Z,997.32
2019-01-22T02:29:39.572Z,997.18
2019-01-22T02:30:44.337Z,997.21
2019-01-22T02:31:51.094Z,997.19
2019-01-22T02:32:55.841Z,997.16
2019-01-22T02:34:01.641Z,997.15
2019-01-22T02:35:07.358Z,997.12
2019-01-22T02:36:13.083Z,997.12
2019-01-22T02:37:18.831Z,997.10
2019-01-22T02:38:24.581Z,997.03
2019-01-22T02:39:30.336Z,997.06
2019-01-22T02:40:36.073Z,997.04
2019-01-22T02:41:41.828Z,997.02
2019-01-22T02:42:47.576Z,996.98
2019-01-22T02:43:53.318Z,996.97
2019-01-22T02:44:59.061Z,996.94
2019-01-22T02:46:04.795Z,996.92
2019-01-22T02:47:10.636Z,996.89
2019-01-22T02:48:16.343Z,996.88
2019-01-22T02:49:22.052Z,996.83
2019-01-22T02:50:27.795Z,996.87
2019-01-22T02:51:33.537Z,996.78
2019-01-22T02:52:39.297Z,996.77
2019-01-22T02:53:45.034Z,996.79
2019-01-22T02:54:50.782Z,996.71
2019-01-22T02:55:56.606Z,996.68
2019-01-22T02:57:02.274Z,996.70
2019-01-22T02:58:08.029Z,996.63
2019-01-22T02:59:13.778Z,996.61
2019-01-22T03:00:19.543Z,996.59
2019-01-22T03:01:25.250Z,996.59
2019-01-22T03:02:31.003Z,996.57
2019-01-22T03:03:36.741Z,996.53
2019-01-22T03:04:42.630Z,996.49
2019-01-22T03:05:48.238Z,996.48
2019-01-22T03:06:53.977Z,996.44
2019-01-22T03:07:59.733Z,996.43
2019-01-22T03:09:05.462Z,996.40
2019-01-22T03:10:11.225Z,996.41
2019-01-22T03:11:16.955Z,996.39
2019-01-22T03:12:22.727Z,996.37
2019-01-22T03:13:28.447Z,996.36
2019-01-22T03:14:34.180Z,996.36
2019-01-22T03:15:39.946Z,996.31
2019-01-22T03:16:45.686Z,996.29
2019-01-22T03:17:51.437Z,996.29
2019-01-22T03:18:57.154Z,996.25
2019-01-22T03:20:02.903Z,996.28
2019-01-22T03:21:08.638Z,996.22
2019-01-22T03:22:14.396Z,996.21
2019-01-22T03:23:20.139Z,996.18
2019-01-22T03:24:25.891Z,996.16
2019-01-22T03:25:31.618Z,996.14
2019-01-22T03:26:37.355Z,996.11
2019-01-22T03:27:43.123Z,996.07
2019-01-22T03:28:48.845Z,996.10
2019-01-22T03:29:54.629Z,996.08
2019-01-22T03:31:00.325Z,996.06
2019-01-22T03:32:06.085Z,996.01
2019-01-22T03:33:12.809Z,996.02
2019-01-22T03:34:18.622Z,995.99
2019-01-22T03:35:23.322Z,995.96
2019-01-22T03:36:29.067Z,995.93
2019-01-22T03:37:34.820Z,995.94
2019-01-22T03:38:40.621Z,995.95
2019-01-22T03:39:46.304Z,995.99
2019-01-22T03:40:52.044Z,995.98
2019-01-22T03:41:57.805Z,995.95
2019-01-22T03:43:03.580Z,995.96
2019-01-22T03:44:10.296Z,995.99
2019-01-22T03:45:15.079Z,996.01
2019-01-22T03:46:20.820Z,995.96
2019-01-22T03:47:26.586Z,996.01
2019-01-22T03:48:32.336Z,996.02
2019-01-22T03:49:38.086Z,995.96
2019-01-22T03:50:43.844Z,995.97
2019-01-22T03:51:50.624Z,995.96
2019-01-22T03:52:55.360Z,995.96
2019-01-22T03:54:01.132Z,995.98
2019-01-22T03:55:06.877Z,995.96
2019-01-22T03:56:12.650Z,995.97
2019-01-22T03:57:18.417Z,995.95
2019-01-22T03:58:25.194Z,995.94
2019-01-22T03:59:29.454Z,995.91
2019-01-22T04:00:35.727Z,995.90
2019-01-22T04:01:41.507Z,995.87
2019-01-22T04:02:47.272Z,995.86
2019-01-22T04:03:53.070Z,995.89
2019-01-22T04:04:58.859Z,995.85
2019-01-22T04:06:04.661Z,995.88
2019-01-22T04:07:10.424Z,995.85
2019-01-22T04:08:16.205Z,995.81
2019-01-22T04:09:23.014Z,995.80
2019-01-22T04:10:27.861Z,995.83
2019-01-22T04:11:33.583Z,995.80
2019-01-22T04:12:39.386Z,995.77
2019-01-22T04:13:46.177Z,995.74
2019-01-22T04:14:51.306Z,995.80
2019-01-22T04:15:56.797Z,995.76
2019-01-22T04:17:02.621Z,995.71
2019-01-22T04:18:08.399Z,995.69
2019-01-22T04:19:14.205Z,995.70
2019-01-22T04:20:20.017Z,995.65
2019-01-22T04:21:25.824Z,995.61
2019-01-22T04:22:31.640Z,995.63
2019-01-22T04:23:37.461Z,995.57
2019-01-22T04:24:43.291Z,995.58
2019-01-22T04:25:49.087Z,995.59
2019-01-22T04:26:54.896Z,995.53
2019-01-22T04:28:00.712Z,995.52
2019-01-22T04:29:06.544Z,995.51
2019-01-22T04:30:12.344Z,995.49
2019-01-22T04:31:18.166Z,995.50
2019-01-22T04:32:24.003Z,995.46
2019-01-22T04:33:29.813Z,995.43
2019-01-22T04:34:35.632Z,995.47
2019-01-22T04:35:41.455Z,995.45
2019-01-22T04:36:47.282Z,995.45
2019-01-22T04:37:53.102Z,995.42
2019-01-22T04:38:58.937Z,995.42
2019-01-22T04:40:04.785Z,995.41
2019-01-22T04:41:10.616Z,995.43
2019-01-22T04:42:16.421Z,995.42
2019-01-22T04:43:22.302Z,995.38
2019-01-22T04:44:28.101Z,995.35
2019-01-22T04:45:33.927Z,995.37
2019-01-22T04:46:39.773Z,995.33
2019-01-22T04:47:45.597Z,995.31
2019-01-22T04:48:51.428Z,995.31
2019-01-22T04:49:57.278Z,995.34
2019-01-22T04:51:03.124Z,995.36
2019-01-22T04:52:08.943Z,995.28
2019-01-22T04:53:14.797Z,995.33
2019-01-22T04:54:20.638Z,995.31
2019-01-22T04:55:26.912Z,995.28
2019-01-22T04:56:32.336Z,995.25
2019-01-22T04:57:38.176Z,995.28
2019-01-22T04:58:43.989Z,995.25
2019-01-22T04:59:50.839Z,995.23
2019-01-22T05:00:55.680Z,995.22
2019-01-22T05:02:01.605Z,995.23
2019-01-22T05:03:07.372Z,995.25
2019-01-22T05:04:13.221Z,995.22
2019-01-22T05:05:19.069Z,995.20
2019-01-22T05:06:24.929Z,995.19
2019-01-22T05:07:30.763Z,995.18
2019-01-22T05:08:36.614Z,995.16
2019-01-22T05:09:42.610Z,995.14
2019-01-22T05:10:48.343Z,995.10
2019-01-22T05:11:54.176Z,995.07
2019-01-22T05:13:00.034Z,995.07
2019-01-22T05:14:05.873Z,995.10
2019-01-22T05:15:11.717Z,995.03
2019-01-22T05:16:18.682Z,995.04
2019-01-22T05:17:23.433Z,995.05
2019-01-22T05:18:29.276Z,995.08
2019-01-22T05:19:35.589Z,995.08
2019-01-22T05:20:40.986Z,994.98
2019-01-22T05:21:46.834Z,995.00
2019-01-22T05:22:52.730Z,995.00
2019-01-22T05:23:59.573Z,994.98
2019-01-22T05:25:04.396Z,994.99
2019-01-22T05:26:10.263Z,995.02
2019-01-22T05:27:16.159Z,995.06
2019-01-22T05:28:21.973Z,995.06
2019-01-22T05:29:27.828Z,995.03
2019-01-22T05:30:33.681Z,995.00
2019-01-22T05:31:39.545Z,994.98
2019-01-22T05:32:45.409Z,994.95
2019-01-22T05:33:51.268Z,994.94
2019-01-22T05:34:57.124Z,994.93
2019-01-22T05:36:02.996Z,994.89
2019-01-22T05:37:08.847Z,994.89
2019-01-22T05:38:14.697Z,994.93
2019-01-22T05:39:20.629Z,994.90
2019-01-22T05:40:26.436Z,994.86
2019-01-22T05:41:32.305Z,994.88
2019-01-22T05:42:38.160Z,994.85
2019-01-22T05:43:44.021Z,994.83
2019-01-22T05:44:49.878Z,994.78
2019-01-22T05:45:56.228Z,994.80
2019-01-22T05:47:01.620Z,994.80
2019-01-22T05:48:13.321Z,994.77
2019-01-22T05:49:13.343Z,994.77
2019-01-22T05:50:19.193Z,994.75
2019-01-22T05:51:26.010Z,994.74
2019-01-22T05:52:30.934Z,994.73
2019-01-22T05:53:38.750Z,994.69
2019-01-22T05:54:42.648Z,994.70
2019-01-22T05:55:48.611Z,994.68
2019-01-22T05:56:54.394Z,994.69
2019-01-22T05:58:01.277Z,994.68
2019-01-22T05:59:06.143Z,994.66
2019-01-22T06:00:11.997Z,994.67
2019-01-22T06:01:17.865Z,994.69
2019-01-22T06:02:23.740Z,994.71
2019-01-22T06:03:29.602Z,994.66
2019-01-22T06:04:35.465Z,994.64
2019-01-22T06:05:41.340Z,994.60
2019-01-22T06:06:47.215Z,994.55
2019-01-22T06:07:53.075Z,994.55
2019-01-22T06:08:58.946Z,994.56
2019-01-22T06:10:04.822Z,994.50
2019-01-22T06:11:11.676Z,994.52
2019-01-22T06:12:16.589Z,994.54
2019-01-22T06:13:22.723Z,994.55
2019-01-22T06:14:28.287Z,994.52
2019-01-22T06:15:34.165Z,994.56
2019-01-22T06:16:40.064Z,994.56
2019-01-22T06:17:45.909Z,994.54
2019-01-22T06:18:51.799Z,994.53
2019-01-22T06:19:57.639Z,994.51
2019-01-22T06:21:03.518Z,994.50
2019-01-22T06:22:09.391Z,994.44
2019-01-22T06:23:15.259Z,994.44
2019-01-22T06:24:21.143Z,994.43
2019-01-22T06:25:27.015Z,994.40
2019-01-22T06:26:32.872Z,994.39
2019-01-22T06:27:38.748Z,994.40
2019-01-22T06:28:44.619Z,994.45
2019-01-22T06:29:50.608Z,994.42
2019-01-22T06:30:56.358Z,994.41
2019-01-22T06:32:02.269Z,994.41
2019-01-22T06:33:08.101Z,994.38
2019-01-22T06:34:13.975Z,994.33
2019-01-22T06:35:19.846Z,994.36
2019-01-22T06:36:25.726Z,994.35
2019-01-22T06:37:31.617Z,994.38
2019-01-22T06:38:37.467Z,994.37
2019-01-22T06:39:43.374Z,994.37
2019-01-22T06:40:49.241Z,994.35
2019-01-22T06:41:55.105Z,994.37
2019-01-22T06:43:01.987Z,994.35
2019-01-22T06:44:07.863Z,994.37
2019-01-22T06:45:12.758Z,994.33
2019-01-22T06:46:18.636Z,994.34
2019-01-22T06:47:24.572Z,994.29
2019-01-22T06:48:30.412Z,994.31
2019-01-22T06:49:36.285Z,994.31
2019-01-22T06:50:42.164Z,994.31
2019-01-22T06:51:48.048Z,994.32
2019-01-22T06:52:54.938Z,994.31
2019-01-22T06:53:59.826Z,994.31
2019-01-22T06:55:05.708Z,994.31
2019-01-22T06:56:11.595Z,994.32
2019-01-22T06:57:17.483Z,994.27
2019-01-22T06:58:23.362Z,994.30
2019-01-22T06:59:29.260Z,994.27
2019-01-22T07:00:35.146Z,994.25
2019-01-22T07:01:41.023Z,994.26
2019-01-22T07:02:46.918Z,994.28
2019-01-22T07:03:52.791Z,994.27
2019-01-22T07:04:58.688Z,994.30
2019-01-22T07:06:04.625Z,994.29
2019-01-22T07:07:10.617Z,994.29
2019-01-22T07:11:09.365Z,994.22
2019-01-22T07:12:14.752Z,994.21
2019-01-22T07:13:21.164Z,994.17
2019-01-22T07:14:27.058Z,994.19
2019-01-22T07:15:32.909Z,994.21
2019-01-22T07:16:38.812Z,994.16
2019-01-22T07:17:44.687Z,994.15
2019-01-22T07:18:50.614Z,994.14
2019-01-22T07:19:56.607Z,994.14
2019-01-22T07:21:02.396Z,994.15
2019-01-22T07:22:08.284Z,994.10
2019-01-22T07:23:14.168Z,994.06
2019-01-22T07:24:20.057Z,994.05
2019-01-22T07:25:25.928Z,994.07
2019-01-22T07:26:31.829Z,994.06
2019-01-22T07:27:37.718Z,994.11
2019-01-22T07:28:43.624Z,994.10
2019-01-22T07:29:49.525Z,994.10
2019-01-22T07:30:55.406Z,994.12
2019-01-22T07:32:01.300Z,994.10
2019-01-22T07:33:07.207Z,994.09
2019-01-22T07:34:13.095Z,994.14
2019-01-22T07:35:18.992Z,994.13
2019-01-22T07:36:24.878Z,994.12
2019-01-22T07:37:30.797Z,994.16
2019-01-22T07:38:36.654Z,994.11
2019-01-22T07:39:42.619Z,994.12
2019-01-22T07:40:48.447Z,994.09
2019-01-22T07:41:54.351Z,994.12
2019-01-22T07:43:00.242Z,994.12
2019-01-22T07:44:06.159Z,994.10
2019-01-22T07:45:12.044Z,994.10
2019-01-22T07:46:17.947Z,994.13
2019-01-22T07:47:23.846Z,994.06
2019-01-22T07:48:29.753Z,994.08
2019-01-22T07:49:35.637Z,994.06
2019-01-22T07:50:41.528Z,994.01
2019-01-22T07:51:47.426Z,994.07
2019-01-22T07:52:53.337Z,993.99
2019-01-22T07:53:59.220Z,994.04
2019-01-22T07:55:06.130Z,993.98
2019-01-22T07:56:11.043Z,993.97
2019-01-22T07:57:16.920Z,993.98
2019-01-22T07:58:23.817Z,994.01
2019-01-22T07:59:28.733Z,993.97
2019-01-22T08:00:34.632Z,993.97
2019-01-22T08:01:40.243Z,993.97
2019-01-22T08:05:39.482Z,993.93
2019-01-22T08:06:44.892Z,993.92
2019-01-22T08:07:51.281Z,993.96
2019-01-22T08:08:57.188Z,993.97
2019-01-22T08:10:03.104Z,993.98
2019-01-22T08:11:08.998Z,993.91
2019-01-22T08:12:14.913Z,993.89
2019-01-22T08:13:20.795Z,993.93
2019-01-22T08:14:26.704Z,993.84
2019-01-22T08:15:32.619Z,993.79
2019-01-22T08:16:38.624Z,993.81
2019-01-22T08:17:44.400Z,993.82
2019-01-22T08:18:50.319Z,993.79
2019-01-22T08:19:56.216Z,993.81
2019-01-22T08:21:02.110Z,993.77
2019-01-22T08:22:08.016Z,993.73
2019-01-22T08:23:13.925Z,993.78
2019-01-22T08:24:19.818Z,993.76
2019-01-22T08:25:25.714Z,993.73
2019-01-22T08:26:31.636Z,993.71
2019-01-22T08:27:37.536Z,993.73
2019-01-22T08:28:44.412Z,993.73
2019-01-22T08:29:49.324Z,993.72
2019-01-22T08:30:55.228Z,993.67
2019-01-22T08:32:01.145Z,993.70
2019-01-22T08:33:07.032Z,993.71
2019-01-22T08:34:12.942Z,993.69
2019-01-22T08:35:18.831Z,993.71
2019-01-22T08:36:25.747Z,993.69
2019-01-22T08:37:31.627Z,993.69
2019-01-22T08:38:36.637Z,993.72
2019-01-22T08:39:43.433Z,993.71
2019-01-22T08:40:48.359Z,993.71
2019-01-22T08:41:54.241Z,993.71
2019-01-22T08:43:00.133Z,993.72
2019-01-22T08:44:07.382Z,993.70
2019-01-22T08:45:11.951Z,993.73
2019-01-22T08:46:17.839Z,993.70
2019-01-22T08:47:23.750Z,993.64
2019-01-22T08:48:29.637Z,993.68
2019-01-22T08:49:35.567Z,993.68
2019-01-22T08:50:41.459Z,993.68
2019-01-22T08:51:47.429Z,993.63
2019-01-22T08:52:53.266Z,993.67
2019-01-22T08:53:59.152Z,993.65
2019-01-22T08:55:08.181Z,993.62
2019-01-22T08:59:05.012Z,993.60
2019-01-22T09:00:09.405Z,993.58
2019-01-22T09:01:15.802Z,993.58
2019-01-22T09:02:23.384Z,993.51
2019-01-22T09:03:27.630Z,993.54
2019-01-22T09:04:33.525Z,993.52
2019-01-22T09:05:39.420Z,993.55
2019-01-22T09:06:45.360Z,993.49
2019-01-22T09:07:51.236Z,993.52
2019-01-22T09:08:57.152Z,993.51
2019-01-22T09:10:03.062Z,993.53
2019-01-22T09:11:08.944Z,993.49
2019-01-22T09:12:14.867Z,993.52
2019-01-22T09:13:22.190Z,993.51
2019-01-22T09:14:26.685Z,993.47
2019-01-22T09:15:32.627Z,993.48
2019-01-22T09:16:38.779Z,993.41
2019-01-22T09:17:44.425Z,993.43
2019-01-22T09:18:50.319Z,993.37
2019-01-22T09:19:56.205Z,993.38
2019-01-22T09:21:02.138Z,993.35
2019-01-22T09:22:08.053Z,993.32
2019-01-22T09:23:13.947Z,993.32
2019-01-22T09:24:19.854Z,993.32
2019-01-22T09:25:26.253Z,993.29
2019-01-22T09:26:31.681Z,993.29
2019-01-22T09:27:37.587Z,993.27
2019-01-22T09:28:43.511Z,993.27
2019-01-22T09:29:49.422Z,993.25
2019-01-22T09:30:55.320Z,993.24
2019-01-22T09:32:01.228Z,993.25
2019-01-22T09:33:07.161Z,993.25
2019-01-22T09:34:14.068Z,993.20
2019-01-22T09:35:19.004Z,993.24
2019-01-22T09:36:24.911Z,993.20
2019-01-22T09:37:30.842Z,993.20
2019-01-22T09:38:36.742Z,993.18
2019-01-22T09:39:42.640Z,993.13
2019-01-22T09:40:48.573Z,993.13
2019-01-22T09:41:54.610Z,993.16
2019-01-22T09:43:00.409Z,993.20
2019-01-22T09:44:06.323Z,993.16
2019-01-22T09:45:12.256Z,993.15
2019-01-22T09:46:18.166Z,993.11
2019-01-22T09:47:24.112Z,993.08
2019-01-22T09:48:30.006Z,993.08
2019-01-22T09:49:36.627Z,993.12
2019-01-22T09:50:41.865Z,993.11
2019-01-22T09:51:47.797Z,993.11
2019-01-22T09:52:53.707Z,993.09
2019-01-22T09:53:59.651Z,993.06
2019-01-22T09:55:06.560Z,992.97
2019-01-22T09:56:11.538Z,992.94
2019-01-22T09:57:17.420Z,992.98
2019-01-22T09:58:23.351Z,992.93
2019-01-22T09:59:29.369Z,992.92
2019-01-22T10:00:35.200Z,992.86
2019-01-22T10:01:41.135Z,992.87
2019-01-22T10:02:47.050Z,992.89
2019-01-22T10:03:52.991Z,992.87
2019-01-22T10:04:58.915Z,992.84
2019-01-22T10:06:04.833Z,992.81
2019-01-22T10:07:10.782Z,992.81
2019-01-22T10:08:16.697Z,992.79
2019-01-22T10:09:22.632Z,992.75
2019-01-22T10:10:28.619Z,992.76
2019-01-22T10:11:34.615Z,992.74
2019-01-22T10:12:40.423Z,992.72
2019-01-22T10:13:48.189Z,992.71
2019-01-22T10:14:52.278Z,992.66
2019-01-22T10:15:58.211Z,992.64
2019-01-22T10:17:04.164Z,992.62
2019-01-22T10:18:10.071Z,992.55
2019-01-22T10:19:15.999Z,992.54
2019-01-22T10:20:21.939Z,992.52
2019-01-22T10:21:27.876Z,992.50
2019-01-22T10:22:33.808Z,992.51
2019-01-22T10:23:39.741Z,992.53
2019-01-22T10:24:45.692Z,992.50
2019-01-22T10:25:51.617Z,992.52
2019-01-22T10:26:57.560Z,992.50
2019-01-22T10:28:03.483Z,992.47
2019-01-22T10:29:09.442Z,992.46
2019-01-22T10:30:15.357Z,992.50
2019-01-22T10:31:21.361Z,992.42
2019-01-22T10:32:27.241Z,992.40
2019-01-22T10:36:26.313Z,992.36
2019-01-22T10:37:31.739Z,992.41
2019-01-22T10:38:38.186Z,992.40
2019-01-22T10:39:44.100Z,992.32
2019-01-22T10:40:50.042Z,992.33
2019-01-22T10:41:55.976Z,992.34
2019-01-22T10:43:01.923Z,992.29
2019-01-22T10:44:07.870Z,992.29
2019-01-22T10:45:13.325Z,992.34
2019-01-22T10:46:19.748Z,992.30
2019-01-22T10:47:25.713Z,992.26
2019-01-22T10:48:31.661Z,992.28
2019-01-22T10:49:39.683Z,992.25
2019-01-22T10:50:43.534Z,992.30
2019-01-22T10:51:49.471Z,992.26
2019-01-22T10:52:55.423Z,992.24
2019-01-22T10:56:54.639Z,992.21
2019-01-22T10:57:59.976Z,992.13
2019-01-22T10:59:07.366Z,992.10
2019-01-22T11:00:12.363Z,992.09
2019-01-22T11:01:18.333Z,992.05
2019-01-22T11:02:24.279Z,992.04
2019-01-22T11:03:30.224Z,991.96
2019-01-22T11:04:36.168Z,991.95
2019-01-22T11:05:42.126Z,991.98
2019-01-22T11:06:47.555Z,991.90
2019-01-22T11:07:53.999Z,991.92
2019-01-22T11:08:59.965Z,991.92
2019-01-22T11:10:05.900Z,991.87
2019-01-22T11:11:12.849Z,991.87
2019-01-22T11:13:23.757Z,991.83
2019-01-22T11:14:29.210Z,991.82
2019-01-22T11:15:35.683Z,991.84
2019-01-22T11:16:41.621Z,991.77
2019-01-22T11:17:47.552Z,991.76
2019-01-22T11:18:53.530Z,991.70
2019-01-22T11:19:59.479Z,991.69
2019-01-22T11:21:05.429Z,991.61
2019-01-22T11:22:12.383Z,991.61
2019-01-22T11:23:17.798Z,991.60
2019-01-22T11:24:30.100Z,991.57
2019-01-22T11:25:30.257Z,991.56
2019-01-22T11:26:35.208Z,991.49
2019-01-22T11:27:41.184Z,991.45
2019-01-22T11:28:47.150Z,991.43
2019-01-22T11:29:53.100Z,991.41
2019-01-22T11:30:59.078Z,991.38
2019-01-22T11:32:05.015Z,991.40
2019-01-22T11:33:11.983Z,991.32
2019-01-22T11:34:16.942Z,991.36
2019-01-22T11:35:23.363Z,991.29
2019-01-22T11:36:28.879Z,991.29
2019-01-22T11:37:34.828Z,991.20
2019-01-22T11:38:40.791Z,991.18
2019-01-22T11:39:46.760Z,991.15
2019-01-22T11:40:53.976Z,991.13
2019-01-22T11:41:58.667Z,991.14
2019-01-22T11:43:04.640Z,991.13
2019-01-22T11:47:03.801Z,991.09
2019-01-22T11:48:09.283Z,991.08
2019-01-22T11:49:15.741Z,991.06
2019-01-22T11:50:21.712Z,991.03
2019-01-22T11:51:27.670Z,990.97
2019-01-22T11:52:33.647Z,990.90
2019-01-22T11:53:39.607Z,990.92
2019-01-22T11:54:45.588Z,990.84
2019-01-22T11:55:51.562Z,990.86
2019-01-22T11:56:57.943Z,990.79
2019-01-22T11:58:03.481Z,990.82
2019-01-22T11:59:09.456Z,990.75
2019-01-22T12:00:15.447Z,990.79
2019-01-22T12:01:21.432Z,990.73
2019-01-22T12:02:31.911Z,990.74
2019-01-22T12:03:33.359Z,990.71
2019-01-22T12:04:39.328Z,990.68
2019-01-22T12:05:45.307Z,990.67
2019-01-22T12:06:51.280Z,990.64
2019-01-22T12:07:57.260Z,990.60
2019-01-22T12:11:56.470Z,990.58
2019-01-22T12:14:08.411Z,990.56
2019-01-22T12:15:13.890Z,990.53
2019-01-22T12:16:20.375Z,990.49
2019-01-22T12:17:26.345Z,990.49
2019-01-22T12:18:32.318Z,990.40
2019-01-22T12:19:38.333Z,990.42
2019-01-22T12:20:44.371Z,990.43
2019-01-22T12:21:50.251Z,990.34
2019-01-22T12:22:56.241Z,990.29
2019-01-22T12:24:02.211Z,990.27
2019-01-22T12:25:08.188Z,990.23
2019-01-22T12:26:14.171Z,990.20
2019-01-22T12:27:20.161Z,990.16
2019-01-22T12:28:26.131Z,990.13
2019-01-22T12:29:32.114Z,990.08
2019-01-22T12:30:38.122Z,990.09
2019-01-22T12:31:44.105Z,990.07
2019-01-22T12:32:50.077Z,990.05
2019-01-22T12:33:56.068Z,990.02
2019-01-22T12:35:02.027Z,989.98
2019-01-22T12:36:08.006Z,990.01
2019-01-22T12:37:14.005Z,989.97
2019-01-22T12:38:19.980Z,989.95
2019-01-22T12:39:26.951Z,989.90
2019-01-22T12:40:31.946Z,989.90
2019-01-22T12:41:37.941Z,989.84
2019-01-22T12:42:43.932Z,989.79
2019-01-22T12:43:49.904Z,989.75
2019-01-22T12:44:55.901Z,989.71
2019-01-22T12:46:01.884Z,989.68
2019-01-22T12:47:07.881Z,989.65
2019-01-22T12:48:13.850Z,989.58
2019-01-22T12:49:22.141Z,989.56
2019-01-22T12:50:26.182Z,989.56
2019-01-22T12:51:32.278Z,989.51
2019-01-22T12:52:37.820Z,989.44
2019-01-22T12:53:45.812Z,989.38
2019-01-22T12:54:49.792Z,989.39
2019-01-22T12:55:55.771Z,989.38
2019-01-22T12:57:01.755Z,989.36
2019-01-22T12:58:07.766Z,989.30
2019-01-22T12:59:13.756Z,989.25
2019-01-22T13:00:19.737Z,989.14
2019-01-22T13:01:25.712Z,989.14
2019-01-22T13:02:31.708Z,989.10
2019-01-22T13:03:37.692Z,989.07
2019-01-22T13:04:43.684Z,989.02
2019-01-22T13:05:49.674Z,989.05
2019-01-22T13:06:55.664Z,989.01
2019-01-22T13:08:01.649Z,988.99
2019-01-22T13:09:07.627Z,988.90
2019-01-22T13:10:13.618Z,988.89
2019-01-22T13:11:19.583Z,988.84
2019-01-22T13:12:25.577Z,988.84
2019-01-22T13:13:31.564Z,988.83
2019-01-22T13:14:37.544Z,988.80
2019-01-22T13:15:43.029Z,988.82
2019-01-22T13:17:55.468Z,988.81
2019-01-22T13:19:00.979Z,988.80
2019-01-22T13:20:07.441Z,988.78
2019-01-22T13:21:13.420Z,988.74
2019-01-22T13:22:19.415Z,988.74
2019-01-22T13:23:25.385Z,988.74
2019-01-22T13:24:31.367Z,988.74
2019-01-22T13:25:37.351Z,988.67
2019-01-22T13:26:43.332Z,988.64
2019-01-22T13:27:49.316Z,988.64
2019-01-22T13:28:55.323Z,988.65
2019-01-22T13:30:01.931Z,988.57
2019-01-22T13:31:07.285Z,988.56
2019-01-22T13:32:13.756Z,988.57
2019-01-22T13:33:19.237Z,988.53
2019-01-22T13:34:25.229Z,988.56
2019-01-22T13:35:31.228Z,988.53
2019-01-22T13:36:37.185Z,988.50
2019-01-22T13:37:43.187Z,988.42
2019-01-22T13:38:49.136Z,988.39
2019-01-22T13:39:55.125Z,988.42
2019-01-22T13:41:01.110Z,988.47
2019-01-22T13:42:07.081Z,988.46
2019-01-22T13:43:13.062Z,988.38
2019-01-22T13:44:19.046Z,988.39
2019-01-22T13:45:25.010Z,988.32
2019-01-22T13:46:31.005Z,988.34
2019-01-22T13:47:36.965Z,988.37
2019-01-22T13:48:42.993Z,988.34
2019-01-22T13:49:48.921Z,988.35
2019-01-22T13:50:54.923Z,988.30
2019-01-22T13:52:00.889Z,988.31
2019-01-22T13:53:06.861Z,988.28
2019-01-22T13:54:12.873Z,988.30
2019-01-22T13:55:18.841Z,988.22
2019-01-22T13:56:24.804Z,988.23
2019-01-22T13:57:30.810Z,988.23
2019-01-22T13:58:36.783Z,988.26
2019-01-22T13:59:42.760Z,988.20
2019-01-22T14:00:48.759Z,988.21
2019-01-22T14:01:54.726Z,988.14
2019-01-22T14:03:00.716Z,988.08
2019-01-22T14:04:07.068Z,988.03
2019-01-22T14:05:12.679Z,987.97